Time;durP1;ratioP1;P1;durP2;ratioP2;P2;SDS_P1;SDS_P2;PMS_P1;PMS_P2;Temp;Humidity;BMP_temperature;BMP_pressure;BME280_temperature;BME280_humidity;BME280_pressure;Samples;Min_cycle;Max_cycle;Signal;HPM_P1;HPM_P2
2021/08/30 00:01:18;;;;;;;9.20;7.68;;;23.40;86.90;;;;;;4957278;29;20030;-91
2021/08/30 00:03:45;;;;;;;9.65;8.07;;;23.40;87.10;;;;;;4957623;29;20023;-91
2021/08/30 00:06:10;;;;;;;9.52;8.48;;;23.40;87.30;;;;;;4956959;29;20023;-91
2021/08/30 00:08:36;;;;;;;9.68;8.10;;;23.40;87.50;;;;;;4957249;29;20110;-91
2021/08/30 00:11:03;;;;;;;8.13;7.32;;;23.40;87.50;;;;;;4957284;29;20026;-92
2021/08/30 00:13:29;;;;;;;9.90;8.10;;;23.40;87.70;;;;;;4957395;29;20476;-91
2021/08/30 00:15:56;;;;;;;9.15;8.05;;;23.30;87.70;;;;;;4958066;28;20106;-92
2021/08/30 00:18:23;;;;;;;8.80;7.72;;;23.40;87.90;;;;;;4957103;29;20030;-91
2021/08/30 00:20:50;;;;;;;9.85;7.95;;;23.40;88.10;;;;;;4956856;29;20086;-92
2021/08/30 00:23:16;;;;;;;8.98;7.93;;;23.40;88.10;;;;;;4958115;28;20062;-92
2021/08/30 00:25:42;;;;;;;10.23;7.63;;;23.40;88.40;;;;;;4956753;29;20069;-91
2021/08/30 00:28:07;;;;;;;10.85;7.85;;;23.40;88.40;;;;;;4957186;29;20028;-91
2021/08/30 00:30:33;;;;;;;10.75;8.88;;;23.40;88.70;;;;;;4956510;29;20055;-91
2021/08/30 00:32:59;;;;;;;9.43;7.45;;;23.40;88.80;;;;;;4956302;29;20066;-91
2021/08/30 00:35:25;;;;;;;8.73;7.82;;;23.30;89.20;;;;;;4956424;29;20023;-91
2021/08/30 00:37:51;;;;;;;8.65;7.80;;;23.30;89.50;;;;;;4956561;29;20030;-92
2021/08/30 00:40:17;;;;;;;9.35;7.93;;;23.30;89.70;;;;;;4956252;28;20019;-91
2021/08/30 00:42:44;;;;;;;10.45;8.52;;;23.30;90.00;;;;;;4956549;29;20447;-91
2021/08/30 00:45:11;;;;;;;9.65;7.85;;;23.30;90.10;;;;;;4957644;28;20023;-92
2021/08/30 00:47:38;;;;;;;12.68;8.02;;;23.30;90.10;;;;;;4956247;29;20347;-92
2021/08/30 00:50:06;;;;;;;10.63;7.75;;;23.30;90.20;;;;;;4956387;29;20023;-92
2021/08/30 00:52:32;;;;;;;10.13;7.72;;;23.30;90.30;;;;;;4956324;29;20019;-92
2021/08/30 00:54:59;;;;;;;12.48;7.82;;;23.30;90.50;;;;;;4956366;28;20089;-92
2021/08/30 00:57:25;;;;;;;8.32;6.90;;;23.30;90.60;;;;;;4957287;28;20113;-91
2021/08/30 00:59:51;;;;;;;9.18;8.27;;;23.30;90.70;;;;;;4956294;28;20058;-91
2021/08/30 01:02:17;;;;;;;8.23;7.18;;;23.30;90.90;;;;;;4956487;29;20455;-92
2021/08/30 01:04:44;;;;;;;11.25;7.97;;;23.20;91.00;;;;;;4956087;29;20480;-91
2021/08/30 01:07:46;;;;;;;11.52;8.10;;;23.30;91.20;;;;;;4956747;29;20084;-91
2021/08/30 01:10:47;;;;;;;8.68;7.65;;;23.20;91.40;;;;;;4962251;28;20455;-92
2021/08/30 01:13:44;;;;;;;10.57;8.52;;;23.20;91.40;;;;;;4953945;28;20035;-91
2021/08/30 01:16:11;;;;;;;9.68;8.48;;;23.20;91.60;;;;;;4970141;28;20134;-92
2021/08/30 01:18:40;;;;;;;9.60;8.60;;;23.20;92.00;;;;;;4956048;29;20422;-91
2021/08/30 01:21:15;;;;;;;11.80;9.13;;;23.20;91.90;;;;;;4956381;29;20417;-91
2021/08/30 01:23:44;;;;;;;9.40;8.40;;;23.30;92.40;;;;;;4956181;29;20031;-91
2021/08/30 01:26:12;;;;;;;12.40;8.82;;;23.20;92.10;;;;;;4956191;29;20019;-91
2021/08/30 01:29:00;;;;;;;9.68;8.55;;;23.30;92.10;;;;;;4955553;29;20103;-91
2021/08/30 01:31:52;;;;;;;15.90;10.00;;;23.20;92.50;;;;;;4955710;29;20024;-92
2021/08/30 01:34:20;;;;;;;13.27;9.88;;;23.30;92.80;;;;;;4955905;29;20027;-92
2021/08/30 01:36:48;;;;;;;12.43;10.65;;;23.30;92.80;;;;;;4956878;28;20358;-91
2021/08/30 01:39:15;;;;;;;12.88;10.88;;;23.30;92.90;;;;;;4955262;29;20184;-92
2021/08/30 01:41:42;;;;;;;12.63;10.70;;;23.30;93.00;;;;;;4955456;29;20037;-92
2021/08/30 01:44:09;;;;;;;11.27;10.07;;;23.30;93.10;;;;;;4956635;28;20050;-91
2021/08/30 01:46:37;;;;;;;10.68;8.48;;;23.30;93.20;;;;;;4956434;28;20058;-91
2021/08/30 01:49:04;;;;;;;12.48;9.27;;;23.30;93.30;;;;;;4955619;29;20027;-91
2021/08/30 01:51:31;;;;;;;10.65;9.50;;;23.30;93.30;;;;;;4954497;28;20370;-92
2021/08/30 01:53:58;;;;;;;10.82;9.73;;;23.30;93.40;;;;;;4955085;29;20031;-91
2021/08/30 01:56:26;;;;;;;10.05;9.05;;;23.30;93.50;;;;;;4954908;29;20479;-91
2021/08/30 02:01:37;;;;;;;9.80;8.80;;;23.30;93.50;;;;;;4956711;29;20069;-91
2021/08/30 02:04:04;;;;;;;11.32;10.07;;;23.30;93.70;;;;;;4955087;29;20027;-91
2021/08/30 02:06:31;;;;;;;14.18;10.45;;;23.30;93.60;;;;;;4954874;29;20023;-91
2021/08/30 02:08:58;;;;;;;13.07;10.43;;;23.30;93.70;;;;;;4955181;29;20086;-92
2021/08/30 02:11:32;;;;;;;11.50;9.65;;;23.30;93.70;;;;;;4955011;29;20465;-91
2021/08/30 02:13:59;;;;;;;17.35;9.05;;;23.30;93.80;;;;;;4954695;29;20038;-91
2021/08/30 02:16:26;;;;;;;10.27;8.63;;;23.20;93.80;;;;;;4956314;28;20028;-92
2021/08/30 02:18:54;;;;;;;12.20;9.65;;;23.20;93.90;;;;;;4954807;28;20031;-92
2021/08/30 02:21:57;;;;;;;12.52;9.70;;;23.20;94.10;;;;;;4955774;28;20027;-91
2021/08/30 02:24:46;;;;;;;12.63;9.35;;;23.10;94.10;;;;;;4955336;28;20027;-91
2021/08/30 02:27:14;;;;;;;10.50;9.40;;;23.10;94.20;;;;;;4954972;29;20098;-91
2021/08/30 02:29:45;;;;;;;12.93;9.25;;;23.10;94.40;;;;;;4955156;29;20027;-91
2021/08/30 02:32:14;;;;;;;12.40;9.02;;;23.10;94.50;;;;;;4954854;29;20035;-91
2021/08/30 02:34:44;;;;;;;10.38;9.38;;;23.10;94.50;;;;;;4954740;28;20046;-91
2021/08/30 02:37:11;;;;;;;13.02;8.70;;;23.10;94.50;;;;;;4954941;29;20023;-91
2021/08/30 02:39:37;;;;;;;10.93;9.70;;;23.00;94.60;;;;;;4955981;28;20418;-90
2021/08/30 02:42:05;;;;;;;13.15;9.88;;;23.00;94.70;;;;;;4955910;28;20027;-92
2021/08/30 02:44:32;;;;;;;10.15;8.98;;;23.00;94.70;;;;;;4955264;29;20122;-91
2021/08/30 02:46:59;;;;;;;10.15;8.80;;;23.00;94.70;;;;;;4956092;29;20459;-91
2021/08/30 02:49:25;;;;;;;10.15;8.32;;;23.00;94.70;;;;;;4956020;29;20027;-90
2021/08/30 02:51:53;;;;;;;11.38;9.93;;;23.00;94.70;;;;;;4955989;29;20050;-91
2021/08/30 02:54:22;;;;;;;11.18;9.25;;;23.00;94.70;;;;;;4955949;29;20070;-92
2021/08/30 02:56:49;;;;;;;10.90;9.15;;;23.10;94.70;;;;;;4954829;29;20058;-91
2021/08/30 02:59:17;;;;;;;10.43;9.20;;;23.10;94.70;;;;;;4954872;28;20082;-91
2021/08/30 03:01:44;;;;;;;11.05;8.98;;;23.10;94.70;;;;;;4955265;28;20027;-91
2021/08/30 03:04:12;;;;;;;10.55;8.60;;;23.00;94.70;;;;;;4959765;28;20035;-91
2021/08/30 03:06:38;;;;;;;10.43;8.45;;;23.00;94.80;;;;;;4958309;29;20023;-91
2021/08/30 03:09:04;;;;;;;9.40;8.35;;;23.00;94.70;;;;;;4958432;29;20024;-91
2021/08/30 03:11:32;;;;;;;12.43;9.60;;;23.00;94.80;;;;;;4958693;29;20083;-91
2021/08/30 03:14:00;;;;;;;10.73;9.52;;;23.00;94.90;;;;;;4957924;29;20027;-92
2021/08/30 03:16:28;;;;;;;10.63;9.00;;;23.00;95.00;;;;;;4959446;28;20111;-91
2021/08/30 03:18:57;;;;;;;10.95;8.05;;;23.10;95.10;;;;;;4958093;29;20078;-91
2021/08/30 03:21:24;;;;;;;14.45;8.77;;;23.10;95.00;;;;;;4957993;29;20023;-91
2021/08/30 03:23:52;;;;;;;9.93;8.90;;;23.10;95.00;;;;;;4958202;29;20047;-91
2021/08/30 03:26:20;;;;;;;12.13;8.85;;;23.10;95.00;;;;;;4957672;29;20066;-91
2021/08/30 03:28:46;;;;;;;10.18;8.52;;;23.20;95.00;;;;;;4958384;29;20032;-92
2021/08/30 03:31:13;;;;;;;10.63;8.18;;;23.20;94.90;;;;;;4957789;29;20019;-91
2021/08/30 03:33:40;;;;;;;8.93;7.43;;;23.20;94.80;;;;;;4957498;29;20110;-91
2021/08/30 03:36:07;;;;;;;8.43;7.22;;;23.30;94.80;;;;;;4957638;29;20047;-90
2021/08/30 03:38:33;;;;;;;10.85;8.50;;;23.30;94.70;;;;;;4957376;28;20024;-91
2021/08/30 03:40:59;;;;;;;10.57;9.05;;;23.30;94.70;;;;;;4957660;29;20026;-91
2021/08/30 03:43:26;;;;;;;9.77;8.25;;;23.40;95.00;;;;;;4957517;29;20077;-91
2021/08/30 03:45:53;;;;;;;10.13;8.82;;;23.40;94.60;;;;;;4957485;29;20557;-91
2021/08/30 03:48:19;;;;;;;8.55;7.53;;;23.40;94.50;;;;;;4958799;28;20450;-91
2021/08/30 03:50:46;;;;;;;9.65;8.25;;;23.40;94.40;;;;;;4958893;28;20024;-91
2021/08/30 03:53:13;;;;;;;8.68;7.60;;;23.40;94.30;;;;;;4958361;28;20039;-91
2021/08/30 03:55:39;;;;;;;10.02;8.25;;;23.50;94.20;;;;;;4958424;28;20126;-91
2021/08/30 03:58:06;;;;;;;10.02;7.50;;;23.50;94.20;;;;;;4957208;29;20031;-91
2021/08/30 04:00:32;;;;;;;10.38;7.78;;;23.50;94.00;;;;;;4957136;28;20027;-91
2021/08/30 04:03:01;;;;;;;8.73;7.78;;;23.60;94.00;;;;;;4957008;29;20027;-91
2021/08/30 04:05:29;;;;;;;10.23;7.57;;;23.60;93.90;;;;;;4957427;29;20028;-90
2021/08/30 04:07:59;;;;;;;9.90;8.20;;;23.60;93.80;;;;;;4956688;29;20027;-92
2021/08/30 04:10:26;;;;;;;10.48;7.63;;;23.60;93.70;;;;;;4957378;29;20023;-91
2021/08/30 04:12:55;;;;;;;9.02;8.13;;;23.70;93.60;;;;;;4956763;28;20367;-91
2021/08/30 04:15:22;;;;;;;8.73;7.82;;;23.70;93.50;;;;;;4956434;28;20090;-91
2021/08/30 04:17:47;;;;;;;10.70;8.40;;;23.70;93.40;;;;;;4958035;28;20035;-91
2021/08/30 04:20:13;;;;;;;14.35;7.35;;;23.80;93.40;;;;;;4957086;28;20030;-91
2021/08/30 04:22:39;;;;;;;8.90;7.35;;;23.80;93.20;;;;;;4958364;28;20019;-91
2021/08/30 04:25:05;;;;;;;9.90;7.93;;;23.90;93.10;;;;;;4956686;29;20162;-91
2021/08/30 04:27:31;;;;;;;9.93;7.82;;;23.90;93.00;;;;;;4956929;29;20027;-91
2021/08/30 04:29:57;;;;;;;9.18;7.43;;;24.00;93.00;;;;;;4956817;29;20026;-89
2021/08/30 04:32:23;;;;;;;9.50;7.70;;;24.10;92.90;;;;;;4956653;28;20074;-91
2021/08/30 04:34:49;;;;;;;9.15;7.28;;;24.10;92.60;;;;;;4956362;29;20035;-90
2021/08/30 04:37:16;;;;;;;8.90;8.00;;;24.20;92.30;;;;;;4956538;29;20030;-91
2021/08/30 04:39:42;;;;;;;7.35;6.45;;;24.30;92.10;;;;;;4956419;29;20078;-91
2021/08/30 04:42:08;;;;;;;9.25;7.30;;;24.30;91.90;;;;;;4956652;29;20023;-91
2021/08/30 04:44:34;;;;;;;9.15;7.07;;;24.40;91.80;;;;;;4956405;28;20031;-91
2021/08/30 04:47:03;;;;;;;8.25;7.40;;;24.40;91.50;;;;;;4956353;28;20123;-91
2021/08/30 04:49:29;;;;;;;9.50;7.75;;;24.40;91.30;;;;;;4957712;28;20030;-91
2021/08/30 04:51:54;;;;;;;10.65;7.25;;;24.50;91.00;;;;;;4956776;28;20023;-91
2021/08/30 04:54:21;;;;;;;12.43;7.50;;;24.60;90.70;;;;;;4956189;29;20275;-90
2021/08/30 04:56:47;;;;;;;8.52;7.28;;;24.60;90.50;;;;;;4956291;28;20451;-90
2021/08/30 04:59:13;;;;;;;9.55;6.70;;;24.70;90.30;;;;;;4955925;29;20078;-91
2021/08/30 05:01:39;;;;;;;8.52;7.28;;;24.80;90.00;;;;;;4956310;29;20019;-90
2021/08/30 05:04:05;;;;;;;7.93;7.07;;;24.90;89.40;;;;;;4957077;28;20027;-91
2021/08/30 05:06:30;;;;;;;9.65;6.95;;;25.00;88.40;;;;;;4956439;29;20031;-90
2021/08/30 05:08:56;;;;;;;7.75;6.95;;;25.10;87.50;;;;;;4955864;29;20102;-91
2021/08/30 05:11:22;;;;;;;8.45;7.30;;;25.20;86.40;;;;;;4957579;28;20034;-91
2021/08/30 05:13:48;;;;;;;8.85;6.75;;;25.20;85.80;;;;;;4956029;29;20477;-91
2021/08/30 05:16:13;;;;;;;9.10;7.25;;;25.30;85.30;;;;;;4955874;29;20046;-91
2021/08/30 05:18:40;;;;;;;8.45;6.57;;;25.30;84.80;;;;;;4955711;29;20031;-90
2021/08/30 05:21:07;;;;;;;10.75;6.72;;;25.40;83.90;;;;;;4955727;29;20019;-91
2021/08/30 05:23:34;;;;;;;8.48;7.13;;;25.40;83.10;;;;;;4955696;29;20353;-91
2021/08/30 05:26:00;;;;;;;9.30;6.50;;;25.50;83.00;;;;;;4955764;28;20019;-91
2021/08/30 05:28:25;;;;;;;8.02;6.20;;;25.50;82.10;;;;;;4957357;28;20546;-91
2021/08/30 05:30:51;;;;;;;7.85;6.70;;;25.50;81.60;;;;;;4955301;29;20055;-91
2021/08/30 05:33:18;;;;;;;9.68;7.15;;;25.50;81.20;;;;;;4956047;29;20135;-90
2021/08/30 05:35:43;;;;;;;7.50;6.43;;;25.50;80.80;;;;;;4965889;28;20023;-92
2021/08/30 05:38:09;;;;;;;9.40;6.88;;;25.60;80.20;;;;;;4971637;28;20026;-91
2021/08/30 05:40:35;;;;;;;7.53;6.75;;;25.60;79.70;;;;;;4969204;28;20023;-92
2021/08/30 05:43:01;;;;;;;7.78;6.95;;;25.60;79.60;;;;;;4964318;28;20045;-91
2021/08/30 05:45:27;;;;;;;8.98;7.05;;;25.70;79.10;;;;;;4964015;28;20026;-92
2021/08/30 05:47:53;;;;;;;10.82;7.35;;;25.70;78.40;;;;;;4971371;28;20023;-91
2021/08/30 05:50:19;;;;;;;9.50;7.10;;;25.80;77.90;;;;;;4967336;28;20065;-91
2021/08/30 05:52:45;;;;;;;8.27;7.40;;;25.80;77.20;;;;;;4965472;28;20027;-92
2021/08/30 05:55:11;;;;;;;10.52;7.50;;;25.70;76.60;;;;;;4964012;28;20038;-91
2021/08/30 05:57:36;;;;;;;11.07;7.53;;;25.70;76.50;;;;;;4963348;28;20433;-91
2021/08/30 06:00:04;;;;;;;11.00;7.80;;;25.70;76.00;;;;;;4960876;28;20027;-90
2021/08/30 06:02:36;;;;;;;8.45;7.07;;;25.70;75.90;;;;;;4968716;28;20026;-91
2021/08/30 06:05:02;;;;;;;8.88;7.10;;;25.70;75.60;;;;;;4963771;28;20051;-94
2021/08/30 06:07:28;;;;;;;8.68;6.75;;;25.70;75.50;;;;;;4964613;28;20019;-91
2021/08/30 06:09:54;;;;;;;8.02;7.15;;;25.70;76.10;;;;;;4966388;28;20354;-91
2021/08/30 06:12:27;;;;;;;7.57;6.78;;;25.70;75.30;;;;;;4966586;28;20062;-90
2021/08/30 06:14:52;;;;;;;8.63;7.72;;;25.90;75.10;;;;;;4965455;28;20042;-91
2021/08/30 06:17:18;;;;;;;12.95;8.45;;;25.90;74.80;;;;;;4963584;28;20023;-91
2021/08/30 06:19:44;;;;;;;10.75;8.15;;;26.00;74.20;;;;;;4962770;28;20476;-91
2021/08/30 06:22:10;;;;;;;8.90;8.10;;;26.10;73.80;;;;;;4963757;28;20165;-91
2021/08/30 06:24:47;;;;;;;9.48;8.15;;;26.10;73.30;;;;;;4962258;28;20121;-90
2021/08/30 06:27:17;;;;;;;8.50;6.50;;;26.10;72.90;;;;;;4966273;28;20571;-90
2021/08/30 06:29:43;;;;;;;9.43;7.65;;;26.10;72.70;;;;;;4966486;28;20359;-91
2021/08/30 06:32:14;;;;;;;9.40;7.28;;;26.10;72.60;;;;;;4964717;28;20015;-90
2021/08/30 06:34:43;;;;;;;9.23;7.43;;;26.10;72.40;;;;;;4964834;28;20034;-91
2021/08/30 06:37:09;;;;;;;11.48;7.00;;;26.00;72.30;;;;;;4962763;28;20479;-92
2021/08/30 06:39:35;;;;;;;9.38;7.35;;;26.00;72.30;;;;;;4962962;28;20118;-93
2021/08/30 06:42:01;;;;;;;10.52;7.15;;;26.00;72.40;;;;;;4969444;28;20083;-92
2021/08/30 06:44:27;;;;;;;8.85;7.47;;;26.00;72.20;;;;;;4963380;28;20114;-92
2021/08/30 06:46:52;;;;;;;10.32;7.60;;;26.00;71.70;;;;;;4964171;28;20435;-90
2021/08/30 06:49:19;;;;;;;9.15;6.85;;;26.00;72.00;;;;;;4965909;28;20118;-93
2021/08/30 06:51:44;;;;;;;8.68;7.03;;;26.10;71.90;;;;;;4962334;28;20406;-93
2021/08/30 06:54:10;;;;;;;8.77;7.40;;;26.10;71.80;;;;;;4966460;28;20027;-91
2021/08/30 06:56:37;;;;;;;9.45;7.07;;;26.20;71.50;;;;;;4964158;28;20054;-90
2021/08/30 06:59:03;;;;;;;8.43;6.88;;;26.20;71.20;;;;;;4962819;28;20034;-91
2021/08/30 07:01:29;;;;;;;12.68;6.68;;;26.30;71.10;;;;;;4966482;28;20019;-90
2021/08/30 07:03:55;;;;;;;7.90;7.07;;;26.30;71.10;;;;;;4963317;28;20090;-90
2021/08/30 07:06:20;;;;;;;8.43;6.60;;;26.40;70.90;;;;;;4966450;28;20014;-90
2021/08/30 07:08:46;;;;;;;8.00;6.75;;;26.60;70.80;;;;;;4963372;28;20091;-90
2021/08/30 07:11:12;;;;;;;10.52;7.13;;;26.70;70.30;;;;;;4971400;28;20022;-91
2021/08/30 07:13:38;;;;;;;8.45;7.07;;;26.80;70.10;;;;;;4999375;28;20117;-90
2021/08/30 07:16:04;;;;;;;8.18;6.78;;;26.90;69.70;;;;;;4999780;28;20034;-90
2021/08/30 07:18:29;;;;;;;10.70;7.25;;;27.10;69.50;;;;;;4999643;28;20030;-91
2021/08/30 07:20:55;;;;;;;9.13;7.20;;;27.10;69.10;;;;;;4960935;28;20086;-90
2021/08/30 07:23:21;;;;;;;10.32;6.80;;;27.20;68.90;;;;;;4955689;29;20390;-90
2021/08/30 07:25:47;;;;;;;12.25;7.85;;;27.30;69.00;;;;;;4973943;28;20027;-91
2021/08/30 07:28:13;;;;;;;7.38;6.68;;;27.40;68.80;;;;;;4975479;28;20062;-91
2021/08/30 07:30:38;;;;;;;8.82;6.65;;;27.50;68.60;;;;;;4973498;28;20442;-91
2021/08/30 07:33:04;;;;;;;8.18;6.72;;;27.60;68.30;;;;;;4973098;28;20481;-91
2021/08/30 07:35:30;;;;;;;10.00;7.18;;;27.70;68.20;;;;;;4973421;28;20034;-91
2021/08/30 07:37:56;;;;;;;6.68;5.97;;;27.70;68.20;;;;;;4972983;28;20389;-91
2021/08/30 07:40:22;;;;;;;8.27;6.13;;;27.80;68.10;;;;;;4974584;28;20027;-91
2021/08/30 07:42:48;;;;;;;10.82;6.47;;;27.80;68.10;;;;;;4973166;28;20074;-91
2021/08/30 07:45:13;;;;;;;10.02;6.60;;;27.90;67.90;;;;;;4971454;28;20057;-90
2021/08/30 07:47:42;;;;;;;6.65;5.78;;;27.90;67.60;;;;;;4972037;28;20034;-91
2021/08/30 07:50:10;;;;;;;10.15;6.18;;;28.00;67.70;;;;;;4975087;28;20114;-91
2021/08/30 07:52:36;;;;;;;6.88;6.13;;;28.00;67.70;;;;;;4976667;28;20031;-91
2021/08/30 07:55:04;;;;;;;7.13;6.28;;;28.10;67.70;;;;;;4960390;28;20043;-92
2021/08/30 07:57:30;;;;;;;8.60;6.63;;;28.10;67.70;;;;;;4976651;28;20129;-91
2021/08/30 07:59:55;;;;;;;7.60;6.80;;;28.20;67.60;;;;;;4976606;28;20446;-92
2021/08/30 08:02:21;;;;;;;8.48;6.55;;;28.30;67.60;;;;;;4976676;28;20077;-91
2021/08/30 08:04:47;;;;;;;6.70;5.75;;;28.30;67.60;;;;;;4975498;28;20478;-92
2021/08/30 08:07:13;;;;;;;8.65;7.00;;;28.30;67.80;;;;;;4974808;28;20031;-91
2021/08/30 08:09:38;;;;;;;8.57;6.90;;;28.30;68.00;;;;;;4975735;28;20027;-92
2021/08/30 08:12:05;;;;;;;8.20;6.50;;;28.30;68.20;;;;;;4975018;28;20066;-92
2021/08/30 08:14:30;;;;;;;9.70;7.25;;;28.30;68.30;;;;;;4973325;28;20137;-92
2021/08/30 08:16:56;;;;;;;8.48;7.20;;;28.30;68.60;;;;;;4975306;28;20070;-92
2021/08/30 08:19:22;;;;;;;8.05;6.85;;;28.20;68.80;;;;;;4976761;28;20038;-91
2021/08/30 08:21:48;;;;;;;7.75;6.63;;;28.20;69.00;;;;;;4976567;28;20038;-92
2021/08/30 08:24:14;;;;;;;9.20;6.80;;;28.20;69.40;;;;;;4976014;28;20035;-92
2021/08/30 08:26:40;;;;;;;8.70;6.65;;;28.20;69.70;;;;;;4976070;28;20129;-91
2021/08/30 08:29:06;;;;;;;8.57;7.22;;;28.20;69.80;;;;;;4975633;28;20041;-91
2021/08/30 08:31:32;;;;;;;14.15;7.57;;;28.30;69.70;;;;;;4969823;28;20031;-92
2021/08/30 08:33:58;;;;;;;10.70;7.80;;;28.30;69.60;;;;;;4969847;28;20035;-92
2021/08/30 11:39:40;;;;;;;6.22;5.63;;;28.70;63.90;;;;;;4863075;29;20125;-94
2021/08/30 16:03:35;;;;;;;11.77;8.73;;;27.20;66.10;;;;;;4862273;29;20053;-91
2021/08/30 16:06:03;;;;;;;14.05;11.13;;;27.20;65.90;;;;;;4862560;29;20048;-90
2021/08/30 16:08:29;;;;;;;16.65;13.98;;;27.30;66.30;;;;;;4848050;29;20140;-90
2021/08/30 16:10:55;;;;;;;15.90;13.30;;;27.30;67.50;;;;;;4849835;29;21148;-90
2021/08/30 16:13:22;;;;;;;15.90;13.10;;;27.30;68.20;;;;;;4851969;29;20030;-89
2021/08/30 16:15:50;;;;;;;12.63;10.98;;;27.30;68.30;;;;;;4872208;29;20029;-90
2021/08/30 16:18:16;;;;;;;13.82;12.07;;;27.20;68.50;;;;;;4852440;29;20029;-89
2021/08/30 16:20:42;;;;;;;14.32;10.68;;;27.10;68.00;;;;;;4853223;29;20034;-90
2021/08/30 16:23:08;;;;;;;14.50;10.82;;;27.20;68.30;;;;;;4872849;29;20457;-90
2021/08/30 16:25:35;;;;;;;12.13;9.57;;;27.10;68.20;;;;;;4853236;29;20037;-90
2021/08/30 16:28:01;;;;;;;14.98;9.75;;;27.10;68.30;;;;;;4869340;29;20058;-90
2021/08/30 16:30:27;;;;;;;13.98;9.05;;;27.10;68.50;;;;;;4871390;29;20037;-90
2021/08/30 16:32:56;;;;;;;16.60;9.25;;;27.00;68.60;;;;;;4872680;29;20120;-89
2021/08/30 16:35:23;;;;;;;16.02;10.13;;;27.00;68.90;;;;;;4872994;29;20044;-90
2021/08/30 16:37:49;;;;;;;13.52;9.55;;;27.00;69.10;;;;;;4869670;29;20116;-90
2021/08/30 16:40:17;;;;;;;11.48;9.73;;;26.90;69.20;;;;;;4870050;29;20477;-90
2021/08/30 16:42:43;;;;;;;12.75;9.82;;;26.90;69.30;;;;;;4856937;29;20025;-90
2021/08/30 16:45:13;;;;;;;13.93;10.45;;;26.80;69.50;;;;;;4872707;29;20030;-89
2021/08/30 16:47:40;;;;;;;11.40;9.30;;;26.80;69.80;;;;;;4856224;29;20061;-90
2021/08/30 16:50:07;;;;;;;13.68;11.02;;;26.80;70.10;;;;;;4858682;29;20026;-91
2021/08/30 16:52:33;;;;;;;14.20;10.93;;;26.80;70.80;;;;;;4873777;29;20034;-89
2021/08/30 16:54:59;;;;;;;18.13;12.07;;;26.70;71.80;;;;;;4853341;29;20033;-90
2021/08/30 16:57:25;;;;;;;14.70;13.15;;;26.60;73.40;;;;;;4869939;29;20040;-90
2021/08/30 16:59:52;;;;;;;15.00;12.98;;;26.50;75.50;;;;;;4854881;29;20098;-90
2021/08/30 17:02:18;;;;;;;13.35;11.65;;;26.30;77.60;;;;;;4857366;29;20125;-89
2021/08/30 17:04:43;;;;;;;13.10;10.25;;;26.10;79.20;;;;;;4857928;29;20037;-90
2021/08/30 17:07:09;;;;;;;11.40;10.10;;;25.80;80.40;;;;;;4856716;29;20034;-90
2021/08/30 17:09:35;;;;;;;12.57;10.70;;;25.60;81.50;;;;;;4857488;29;20033;-90
2021/08/30 17:12:01;;;;;;;12.18;9.98;;;25.40;82.80;;;;;;4860859;29;20414;-91
2021/08/30 17:14:30;;;;;;;13.25;10.48;;;25.20;83.50;;;;;;4858531;29;20097;-90
2021/08/30 17:16:56;;;;;;;13.75;10.20;;;25.10;83.90;;;;;;4859057;29;20041;-90
2021/08/30 17:19:22;;;;;;;13.43;10.57;;;25.00;83.90;;;;;;4856204;29;20120;-90
2021/08/30 17:21:54;;;;;;;15.32;11.50;;;24.90;84.10;;;;;;4853821;29;20030;-90
2021/08/30 17:24:19;;;;;;;12.77;11.32;;;24.90;85.20;;;;;;4856616;29;20038;-90
2021/08/30 17:26:48;;;;;;;18.02;13.95;;;24.80;85.50;;;;;;4857417;29;20066;-90
2021/08/30 17:29:14;;;;;;;18.80;13.88;;;24.70;86.70;;;;;;4871176;29;20041;-90
2021/08/30 17:31:40;;;;;;;17.23;13.52;;;24.60;87.90;;;;;;4868618;29;20385;-91
2021/08/30 17:34:09;;;;;;;17.33;13.38;;;24.50;89.20;;;;;;4851533;29;20097;-91
2021/08/30 17:36:35;;;;;;;14.65;10.32;;;24.40;90.70;;;;;;4852868;29;20041;-90
2021/08/30 17:39:08;;;;;;;14.95;11.25;;;24.20;91.20;;;;;;4853448;29;20033;-90
2021/08/30 17:41:35;;;;;;;16.17;14.15;;;24.00;91.70;;;;;;4850637;29;20026;-90
2021/08/30 17:44:04;;;;;;;14.95;13.10;;;23.90;93.80;;;;;;4849425;29;20037;-90
2021/08/30 17:46:30;;;;;;;14.20;10.07;;;23.70;95.20;;;;;;4849191;29;20045;-90
2021/08/30 17:48:56;;;;;;;14.02;11.60;;;23.50;95.00;;;;;;4866314;29;20034;-91
2021/08/30 17:51:22;;;;;;;15.70;12.48;;;23.20;95.50;;;;;;4849776;29;20136;-91
2021/08/30 17:53:48;;;;;;;13.05;11.68;;;23.00;96.60;;;;;;4867817;29;20478;-90
2021/08/30 17:56:14;;;;;;;14.07;12.52;;;22.80;96.70;;;;;;4851023;29;20033;-90
2021/08/30 17:58:40;;;;;;;16.63;14.23;;;22.70;97.20;;;;;;4849470;29;20036;-90
2021/08/30 18:01:07;;;;;;;19.67;14.32;;;22.50;98.00;;;;;;4848842;29;20042;-90
2021/08/30 18:03:33;;;;;;;18.52;15.18;;;22.40;98.80;;;;;;4848474;29;20056;-89
2021/08/30 18:06:00;;;;;;;17.55;12.57;;;22.30;99.50;;;;;;4850070;29;20035;-90
2021/08/30 18:08:26;;;;;;;14.70;13.25;;;22.10;99.50;;;;;;4851304;29;20029;-90
2021/08/30 18:10:52;;;;;;;16.45;12.70;;;22.10;99.90;;;;;;4848373;29;20388;-90
2021/08/30 18:13:18;;;;;;;14.32;12.07;;;22.00;99.90;;;;;;4848769;29;20071;-90
2021/08/30 18:15:44;;;;;;;11.95;10.70;;;21.90;99.90;;;;;;4849424;29;20462;-90
2021/08/30 18:18:10;;;;;;;12.73;11.38;;;21.90;99.90;;;;;;4850964;29;20089;-90
2021/08/30 18:20:36;;;;;;;14.80;12.68;;;21.90;99.90;;;;;;4850944;29;20034;-90
2021/08/30 18:23:07;;;;;;;13.93;11.60;;;21.90;99.90;;;;;;4851525;29;20053;-90
2021/08/30 18:25:34;;;;;;;13.75;12.10;;;21.90;99.90;;;;;;4867714;29;20052;-91
2021/08/30 18:28:01;;;;;;;13.02;11.48;;;21.90;99.90;;;;;;4867695;29;20108;-90
2021/08/30 18:30:27;;;;;;;14.43;11.80;;;21.90;99.90;;;;;;4867474;29;20029;-90
2021/08/30 18:32:53;;;;;;;13.30;11.90;;;21.90;99.90;;;;;;4852047;29;20029;-91
2021/08/30 18:35:19;;;;;;;15.70;12.15;;;21.90;99.90;;;;;;4850994;29;20036;-90
2021/08/30 18:37:46;;;;;;;18.45;11.07;;;22.00;99.90;;;;;;4850305;29;20124;-90
2021/08/30 18:40:12;;;;;;;13.98;12.00;;;22.00;99.90;;;;;;4850933;29;20050;-91
2021/08/30 18:42:38;;;;;;;13.35;11.80;;;22.00;99.90;;;;;;4851121;29;20370;-90
2021/08/30 18:45:04;;;;;;;16.65;13.27;;;22.00;99.90;;;;;;4850515;29;20044;-91
2021/08/30 18:47:30;;;;;;;13.52;12.15;;;22.10;99.90;;;;;;4853556;29;20041;-90
2021/08/30 18:49:57;;;;;;;14.25;11.93;;;22.00;99.90;;;;;;4852578;29;20033;-91
2021/08/30 18:52:23;;;;;;;15.25;12.25;;;22.00;99.90;;;;;;4852958;29;20103;-90
2021/08/30 18:54:49;;;;;;;13.48;11.15;;;22.00;99.90;;;;;;4852820;29;20038;-90
2021/08/30 18:57:15;;;;;;;12.68;11.38;;;21.90;99.90;;;;;;4852202;29;20121;-91
2021/08/30 18:59:40;;;;;;;13.85;9.98;;;21.90;99.90;;;;;;4851823;29;20038;-90
2021/08/30 19:02:06;;;;;;;11.77;9.20;;;21.80;99.90;;;;;;4851346;29;20054;-90
2021/08/30 19:04:32;;;;;;;11.65;10.52;;;21.80;99.90;;;;;;4850865;29;20465;-90
2021/08/30 19:06:59;;;;;;;11.27;9.10;;;21.70;99.90;;;;;;4849708;29;20508;-91
2021/08/30 19:09:25;;;;;;;10.18;9.07;;;21.70;99.90;;;;;;4851491;29;20029;-90
2021/08/30 19:11:50;;;;;;;11.73;9.52;;;21.70;99.90;;;;;;4850561;29;20112;-90
2021/08/30 19:14:16;;;;;;;9.43;8.35;;;21.60;99.90;;;;;;4850938;29;20063;-90
2021/08/30 19:16:42;;;;;;;11.32;10.15;;;21.60;99.90;;;;;;4851033;29;20473;-90
2021/08/30 19:19:08;;;;;;;10.43;9.27;;;21.60;99.90;;;;;;4850369;29;20033;-90
2021/08/30 19:21:35;;;;;;;9.88;8.88;;;21.60;99.90;;;;;;4867510;29;20037;-91
2021/08/30 19:24:02;;;;;;;10.77;8.82;;;21.60;99.90;;;;;;4869099;29;20029;-90
2021/08/30 19:26:27;;;;;;;9.00;8.10;;;21.60;99.90;;;;;;4869528;29;20029;-91
2021/08/30 19:28:53;;;;;;;9.05;7.90;;;21.60;99.90;;;;;;4851255;29;20034;-90
2021/08/30 19:31:20;;;;;;;12.27;9.32;;;21.60;99.90;;;;;;4852054;29;20033;-90
2021/08/30 19:33:47;;;;;;;9.95;8.95;;;21.50;99.90;;;;;;4852015;29;20037;-89
2021/08/30 19:36:14;;;;;;;11.02;8.10;;;21.50;99.90;;;;;;4851967;29;20034;-90
2021/08/30 19:38:46;;;;;;;9.80;8.77;;;21.50;99.90;;;;;;4865743;29;20466;-90
2021/08/30 19:41:14;;;;;;;9.23;8.32;;;21.50;99.90;;;;;;4868772;29;20029;-89
2021/08/30 19:43:41;;;;;;;9.98;8.98;;;21.50;99.90;;;;;;4862098;29;20041;-90
2021/08/30 19:46:07;;;;;;;8.65;7.75;;;21.50;99.90;;;;;;4882163;29;20089;-90
2021/08/30 19:48:33;;;;;;;9.07;8.25;;;21.40;99.90;;;;;;4880143;29;20029;-90
2021/08/30 19:50:59;;;;;;;11.43;9.40;;;21.40;99.90;;;;;;4860361;29;20030;-90
2021/08/30 19:53:24;;;;;;;9.90;8.15;;;21.40;99.90;;;;;;4861488;29;20061;-90
2021/08/30 19:55:50;;;;;;;9.27;8.38;;;21.30;99.90;;;;;;4860310;29;20482;-91
2021/08/30 19:58:16;;;;;;;11.18;9.02;;;21.30;99.90;;;;;;4855356;29;20036;-90
2021/08/30 20:00:41;;;;;;;11.25;9.73;;;21.20;99.90;;;;;;4856646;29;20038;-90
2021/08/30 20:03:07;;;;;;;11.15;9.60;;;21.20;99.90;;;;;;4856229;29;20060;-90
2021/08/30 20:05:33;;;;;;;9.43;8.43;;;21.20;99.90;;;;;;4856051;29;20062;-90